Pursley, Texas
Current Conditions -  °F | °C
As of 6:53 AM on Tuesday 21 Oct 2014 (Local Time) from KCRS Reporting Station
Moderate Fog Moderate Fog  
Wind Chill: 55°   Ceiling: 200
Heat Index: 55°   Visibility: 0.25mi
Dew Point: 53°   Wind: 3mph
Humidity: 93%   Direction: 250°WSW
Pressure: 30.08"   Gusts: NA
Location:  31.9458°N, 96.5713°W
Report Text: KCRS 211153Z AUTO 25003KT 1/4SM FG VV002 13/12 A3008 RMK AO2 SLP182 T01280117 10178 20122 53008
Loading
Personal Weather Stations






























Interactive Weather Map New forecast layout! Learn more

10-Day Weather Forecast

Advertisements
Track Severe Weather on mobile